Time;durP1;ratioP1;P1;durP2;ratioP2;P2;SDS_P1;SDS_P2;PMS_P1;PMS_P2;Temp;Humidity;BMP_temperature;BMP_pressure;BME280_temperature;BME280_humidity;BME280_pressure;Samples;Min_cycle;Max_cycle;Signal;HPM_P1;HPM_P2
2022/09/16 00:00:44;;;;;;;11.70;2.70;;;23.40;61.50;;;23.88;47.38;94436.78;6178409;23;20401;-57
2022/09/16 00:03:13;;;;;;;12.10;3.10;;;23.30;61.50;;;23.78;47.28;94437.31;6177794;23;20405;-53
2022/09/16 00:05:42;;;;;;;18.50;3.07;;;23.20;61.60;;;23.69;47.02;94444.13;6177714;23;20429;-55
2022/09/16 00:08:09;;;;;;;12.37;3.10;;;23.10;61.60;;;23.61;46.80;94432.66;6177700;23;20489;-55
2022/09/16 00:10:36;;;;;;;10.80;3.00;;;23.00;62.00;;;23.55;47.29;94443.53;6177896;23;20483;-55
2022/09/16 00:13:04;;;;;;;5.50;2.43;;;23.00;62.60;;;23.49;47.99;94439.88;6178487;23;20674;-56
2022/09/16 00:15:31;;;;;;;12.50;2.90;;;22.90;63.00;;;23.45;47.94;94441.38;6178542;23;20974;-56
2022/09/16 00:17:58;;;;;;;9.90;3.20;;;22.90;63.00;;;23.40;47.93;94436.69;6177835;23;20456;-56
2022/09/16 00:20:27;;;;;;;11.07;3.30;;;22.80;63.00;;;23.37;48.33;94439.84;6178305;23;20809;-55
2022/09/16 00:22:55;;;;;;;8.00;2.60;;;22.80;63.50;;;23.33;48.24;94433.31;6177722;23;20475;-56
2022/09/16 00:25:22;;;;;;;6.43;2.80;;;22.70;63.50;;;23.29;48.47;94434.00;6178106;23;20805;-54
2022/09/16 00:27:49;;;;;;;8.63;2.63;;;22.70;63.40;;;23.24;48.35;94423.97;6178021;23;20410;-55
2022/09/16 00:30:16;;;;;;;15.63;2.80;;;22.60;63.60;;;23.20;48.26;94431.63;6177950;23;20422;-54
2022/09/16 00:32:44;;;;;;;16.40;2.97;;;22.60;64.00;;;23.15;48.28;94428.03;6178131;23;20436;-56
2022/09/16 00:35:11;;;;;;;10.00;2.80;;;22.60;64.00;;;23.11;48.58;94421.47;6177807;23;20452;-57
2022/09/16 00:37:40;;;;;;;10.63;2.47;;;22.50;64.30;;;23.08;48.89;94420.88;6177518;23;20853;-55
2022/09/16 00:40:08;;;;;;;7.00;2.27;;;22.50;65.00;;;23.06;49.07;94427.50;6177703;23;20417;-56
2022/09/16 00:42:39;;;;;;;13.13;2.90;;;22.50;65.10;;;23.03;49.43;94422.56;6177881;23;20405;-57
2022/09/16 00:45:13;;;;;;;7.80;2.50;;;22.50;65.30;;;23.01;49.66;94427.38;6178000;23;20421;-56
2022/09/16 00:47:42;;;;;;;10.00;2.60;;;22.40;65.40;;;22.98;49.17;94422.47;6177834;23;20413;-53
2022/09/16 00:50:10;;;;;;;9.00;3.53;;;22.40;65.30;;;22.97;49.69;94436.91;6178271;23;20480;-57
2022/09/16 00:52:39;;;;;;;12.93;2.73;;;22.40;65.40;;;22.96;49.24;94429.88;6177837;23;20406;-57
2022/09/16 00:55:08;;;;;;;7.50;2.77;;;22.40;65.20;;;22.97;49.46;94429.66;6177221;23;20421;-56
2022/09/16 00:57:35;;;;;;;5.80;2.10;;;22.40;65.00;;;23.02;48.75;94423.63;6177311;23;20480;-55
2022/09/16 01:00:04;;;;;;;9.73;2.10;;;22.40;64.50;;;23.10;48.41;94428.72;6177656;23;20424;-56
2022/09/16 01:02:32;;;;;;;7.90;2.40;;;22.50;64.30;;;23.19;48.45;94440.75;6177486;23;20705;-56
2022/09/16 01:05:00;;;;;;;10.07;3.67;;;22.50;63.90;;;23.24;48.65;94427.47;6176836;23;20772;-53
2022/09/16 01:07:31;;;;;;;10.10;2.90;;;22.60;64.40;;;23.28;48.46;94443.91;6178043;23;20409;-58
2022/09/16 01:10:00;;;;;;;20.30;2.53;;;22.60;64.40;;;23.30;48.47;94443.69;6177672;23;20460;-56
2022/09/16 01:12:27;;;;;;;15.53;2.70;;;22.70;64.00;;;23.31;47.75;94448.00;6177609;23;20406;-56
2022/09/16 01:14:57;;;;;;;12.27;2.97;;;22.70;64.20;;;23.31;48.65;94442.63;6177149;23;20929;-55
2022/09/16 01:17:51;;;;;;;7.50;3.37;;;22.70;64.70;;;23.30;48.54;94447.19;6177278;23;20448;-55
2022/09/16 01:20:51;;;;;;;7.47;3.10;;;22.70;64.80;;;23.26;49.03;94449.50;6167364;23;20429;-55
2022/09/16 01:24:17;;;;;;;15.17;2.53;;;22.70;65.10;;;23.23;49.36;94435.72;6126888;23;20479;-57
2022/09/16 01:27:46;;;;;;;11.43;1.90;;;22.60;65.40;;;23.17;49.24;94452.75;6178904;23;20406;-55
2022/09/16 01:30:39;;;;;;;6.10;2.00;;;22.60;65.40;;;23.14;49.49;94445.16;6143087;23;20433;-53
2022/09/16 01:33:09;;;;;;;9.73;2.90;;;22.60;65.40;;;23.10;48.83;94442.13;6178478;23;20390;-59
2022/09/16 01:35:48;;;;;;;7.43;3.23;;;22.50;65.20;;;23.08;48.72;94438.78;6177899;23;20429;-56
2022/09/16 01:38:34;;;;;;;4.27;2.00;;;22.50;65.30;;;23.06;49.50;94427.50;6177779;23;20466;-55
2022/09/16 01:41:09;;;;;;;5.60;1.90;;;22.50;66.10;;;23.02;49.60;94427.13;6178159;23;20782;-55
2022/09/16 01:43:44;;;;;;;11.50;2.13;;;22.40;65.60;;;23.01;48.97;94427.38;6178007;23;20397;-55
2022/09/16 01:46:19;;;;;;;7.00;2.87;;;22.40;65.80;;;23.00;49.75;94420.34;6177198;23;20552;-57
2022/09/16 01:48:51;;;;;;;7.60;2.97;;;22.40;66.00;;;22.98;48.62;94436.69;6177186;23;20938;-56
2022/09/16 01:51:22;;;;;;;7.93;2.90;;;22.40;65.50;;;22.98;49.06;94433.19;6177057;23;20410;-57
2022/09/16 01:53:53;;;;;;;10.63;3.17;;;22.40;65.60;;;22.99;49.17;94424.06;6177144;23;20432;-54
2022/09/16 01:56:22;;;;;;;9.47;3.60;;;22.40;65.50;;;22.97;48.81;94428.84;6177508;23;20393;-55
2022/09/16 01:58:53;;;;;;;6.97;3.27;;;22.40;65.40;;;22.97;48.73;94432.34;6177645;23;20449;-55
2022/09/16 02:01:23;;;;;;;7.07;2.93;;;22.40;65.90;;;22.95;49.31;94429.09;6177207;23;20405;-54
2022/09/16 02:03:55;;;;;;;10.57;2.37;;;22.40;65.60;;;22.96;48.81;94424.53;6176959;23;20460;-57
2022/09/16 02:06:23;;;;;;;9.40;2.70;;;22.40;65.70;;;22.94;49.14;94427.44;6176698;23;20390;-56
2022/09/16 02:08:53;;;;;;;18.27;2.70;;;22.40;65.60;;;22.94;48.74;94432.81;6177260;23;20771;-57
2022/09/16 02:11:20;;;;;;;13.47;2.43;;;22.40;65.50;;;22.95;48.32;94420.22;6176977;23;20881;-56
2022/09/16 02:13:50;;;;;;;8.73;2.83;;;22.30;65.30;;;22.96;48.62;94421.84;6177070;23;20484;-57
2022/09/16 02:16:20;;;;;;;15.03;3.30;;;22.40;65.20;;;22.96;48.70;94422.69;6177659;23;20460;-56
2022/09/16 02:18:52;;;;;;;9.27;2.30;;;22.40;65.20;;;22.98;48.47;94433.19;6177466;23;20445;-56
2022/09/16 02:21:19;;;;;;;8.43;2.47;;;22.40;65.10;;;23.00;48.19;94436.44;6177276;23;21008;-55
2022/09/16 02:23:48;;;;;;;4.07;2.03;;;22.40;65.20;;;23.01;48.90;94425.50;6177179;23;20475;-57
2022/09/16 02:26:19;;;;;;;15.73;2.77;;;22.40;65.40;;;23.02;48.74;94432.50;6177227;23;20398;-57
2022/09/16 02:28:48;;;;;;;10.20;2.73;;;22.40;65.50;;;23.02;48.99;94429.81;6177107;23;20471;-58
2022/09/16 02:31:15;;;;;;;7.70;2.37;;;22.40;65.70;;;23.03;48.51;94426.06;6177185;23;20409;-56
2022/09/16 02:33:45;;;;;;;9.60;2.00;;;22.40;65.30;;;23.04;48.53;94421.53;6176948;23;20891;-56
2022/09/16 02:36:16;;;;;;;5.50;2.17;;;22.50;65.40;;;23.05;48.42;94434.72;6177239;23;20456;-58
2022/09/16 02:38:45;;;;;;;11.20;2.13;;;22.50;65.30;;;23.04;49.03;94433.09;6176309;23;20449;-55
2022/09/16 02:41:14;;;;;;;6.80;2.43;;;22.50;65.60;;;23.03;48.63;94434.13;6177057;23;20433;-56
2022/09/16 02:43:41;;;;;;;8.37;2.70;;;22.50;65.80;;;23.02;48.79;94428.97;6177446;23;20453;-55
2022/09/16 02:46:11;;;;;;;8.33;2.70;;;22.40;65.90;;;22.98;48.99;94422.47;6176615;23;20413;-58
2022/09/16 02:48:47;;;;;;;16.40;3.07;;;22.40;65.90;;;22.94;49.09;94426.63;6177331;23;20512;-56
2022/09/16 02:51:24;;;;;;;16.93;2.93;;;22.40;66.00;;;22.91;48.80;94436.78;6176936;23;20393;-57
2022/09/16 02:53:53;;;;;;;7.40;2.00;;;22.40;65.60;;;22.91;48.48;94438.63;6177057;23;20463;-55
2022/09/16 02:56:24;;;;;;;4.97;2.30;;;22.30;65.30;;;22.94;48.72;94445.41;6177500;23;20406;-54
2022/09/16 02:58:53;;;;;;;6.43;2.57;;;22.30;65.30;;;22.95;48.49;94453.22;6178992;23;20942;-62
2022/09/16 03:01:20;;;;;;;10.33;2.60;;;22.40;65.40;;;22.96;48.16;94462.06;6178519;23;20941;-53
2022/09/16 03:03:47;;;;;;;9.60;2.47;;;22.40;65.40;;;22.97;48.16;94455.69;6178032;23;20433;-57
2022/09/16 03:06:21;;;;;;;8.07;2.37;;;22.40;65.40;;;22.98;48.98;94458.13;6178648;23;20802;-56
2022/09/16 03:08:48;;;;;;;13.20;2.60;;;22.40;65.40;;;23.00;48.67;94471.31;6178558;23;20428;-57
2022/09/16 03:11:35;;;;;;;11.43;3.03;;;22.40;65.20;;;23.01;48.68;94467.59;6177564;23;20412;-56
2022/09/16 03:14:37;;;;;;;9.93;3.17;;;22.40;65.40;;;23.01;48.45;94489.06;6178536;23;20422;-58
2022/09/16 03:17:13;;;;;;;6.90;3.80;;;22.40;65.50;;;22.96;49.06;94487.06;6177746;23;20404;-54
2022/09/16 03:19:47;;;;;;;13.00;3.40;;;22.40;65.80;;;22.96;49.19;94496.94;6178285;23;20457;-54
2022/09/16 03:22:21;;;;;;;12.37;2.87;;;22.40;66.30;;;22.95;48.94;94489.97;6178636;23;20394;-57
2022/09/16 03:24:53;;;;;;;10.40;3.33;;;22.40;66.60;;;22.94;49.50;94491.00;6178678;23;20425;-57
2022/09/16 03:27:23;;;;;;;10.73;2.10;;;22.40;67.00;;;22.92;50.00;94478.63;6178470;23;20400;-54
2022/09/16 03:29:54;;;;;;;11.67;4.60;;;22.30;67.50;;;22.91;49.99;94476.16;6178455;23;20429;-55
2022/09/16 03:32:24;;;;;;;3.90;3.13;;;22.30;68.20;;;22.86;49.61;94463.44;6177964;23;20928;-55
2022/09/16 03:34:52;;;;;;;7.63;3.10;;;22.30;67.80;;;22.80;50.13;94466.22;6178847;23;20448;-54
2022/09/16 03:37:22;;;;;;;27.83;3.57;;;22.30;67.70;;;22.73;49.95;94466.31;6178131;23;20416;-56
2022/09/16 03:39:52;;;;;;;20.00;3.50;;;22.20;67.60;;;22.68;50.46;94460.78;6177397;23;20523;-55
2022/09/16 03:42:19;;;;;;;6.93;3.10;;;22.20;68.40;;;22.63;50.76;94461.47;6177858;23;20492;-55
2022/09/16 03:44:46;;;;;;;11.40;3.43;;;22.10;68.70;;;22.60;50.45;94458.41;6177725;23;20432;-55
2022/09/16 03:47:14;;;;;;;7.03;3.13;;;22.00;68.80;;;22.60;50.67;94458.41;6178302;23;20418;-54
2022/09/16 03:49:41;;;;;;;8.67;4.33;;;22.00;68.90;;;22.60;51.12;94456.53;6178970;23;20432;-56
2022/09/16 03:52:08;;;;;;;10.90;3.20;;;22.00;69.60;;;22.62;51.28;94442.91;6178319;23;20508;-56
2022/09/16 03:54:38;;;;;;;18.77;3.00;;;22.00;70.10;;;22.63;51.23;94456.09;6178188;23;20807;-54
2022/09/16 03:57:05;;;;;;;12.50;3.53;;;22.00;69.70;;;22.64;51.38;94470.34;6177925;23;20401;-57
2022/09/16 03:59:33;;;;;;;11.27;3.20;;;22.00;69.70;;;22.64;50.84;94464.97;6177443;23;20449;-53
2022/09/16 04:02:00;;;;;;;13.27;3.10;;;22.10;69.80;;;22.64;51.17;94465.78;6177437;23;20456;-56
2022/09/16 04:04:27;;;;;;;5.53;2.60;;;22.00;69.40;;;22.62;50.60;94470.56;6177652;23;20537;-55
2022/09/16 04:06:54;;;;;;;14.20;3.50;;;22.00;69.20;;;22.59;51.23;94459.44;6177347;23;20402;-56
2022/09/16 04:09:22;;;;;;;18.03;2.90;;;22.00;68.80;;;22.57;50.30;94459.66;6177658;23;20433;-56
2022/09/16 04:11:50;;;;;;;17.57;6.53;;;22.00;68.80;;;22.55;50.67;94457.22;6177557;23;21246;-55
2022/09/16 04:14:18;;;;;;;17.33;5.43;;;22.00;68.80;;;22.58;50.56;94457.84;6177872;23;20413;-56
2022/09/16 04:16:45;;;;;;;29.87;3.70;;;22.00;68.80;;;22.58;50.32;94476.59;6177441;23;20413;-61
2022/09/16 04:19:12;;;;;;;13.93;3.40;;;22.00;68.60;;;22.61;50.36;94476.16;6177606;23;20460;-56
2022/09/16 04:21:40;;;;;;;15.50;3.33;;;22.00;68.60;;;22.64;49.87;94486.41;6177259;23;20441;-56
2022/09/16 04:24:08;;;;;;;10.53;3.07;;;22.00;68.30;;;22.67;49.43;94485.97;6177486;23;20429;-56
2022/09/16 04:26:35;;;;;;;19.67;7.00;;;22.10;68.10;;;22.70;49.44;94485.53;6177053;23;20475;-55
2022/09/16 04:29:04;;;;;;;12.97;4.10;;;22.10;68.00;;;22.73;49.51;94485.06;6177583;23;20759;-57
2022/09/16 04:31:31;;;;;;;12.07;2.60;;;22.10;67.80;;;22.75;49.63;94488.34;6176093;23;20413;-53
2022/09/16 04:33:58;;;;;;;8.83;3.03;;;22.10;67.60;;;22.77;49.05;94486.25;6176867;23;20434;-56
2022/09/16 04:36:26;;;;;;;11.67;2.53;;;22.20;67.60;;;22.80;49.52;94496.50;6176648;23;20406;-57
2022/09/16 04:38:53;;;;;;;12.30;3.63;;;22.20;67.50;;;22.83;49.15;94498.75;6177319;23;20956;-56
2022/09/16 04:41:21;;;;;;;20.47;4.13;;;22.30;67.40;;;22.84;49.57;94513.81;6176404;23;20477;-55
2022/09/16 04:43:52;;;;;;;19.10;3.83;;;22.20;67.30;;;22.81;49.44;94500.03;6176820;23;20476;-56
2022/09/16 04:46:20;;;;;;;12.57;4.27;;;22.20;67.90;;;22.76;49.61;94506.06;6177000;23;20727;-55
2022/09/16 04:48:48;;;;;;;10.20;3.27;;;22.20;68.60;;;22.70;50.29;94517.69;6176963;23;20433;-55
2022/09/16 04:51:15;;;;;;;10.83;2.97;;;22.20;69.00;;;22.65;50.17;94510.31;6177294;23;20442;-54
2022/09/16 04:53:43;;;;;;;14.67;4.20;;;22.10;68.90;;;22.62;50.33;94505.41;6177188;23;20425;-54
2022/09/16 04:56:14;;;;;;;27.33;6.03;;;22.10;69.00;;;22.61;50.75;94508.31;6176552;23;20488;-55
2022/09/16 04:58:41;;;;;;;13.40;5.57;;;22.10;69.10;;;22.62;50.56;94494.69;6176444;23;20506;-57
2022/09/16 05:01:11;;;;;;;18.97;5.50;;;22.10;69.50;;;22.65;50.71;94498.75;6178080;23;20397;-53
2022/09/16 05:03:40;;;;;;;11.67;4.77;;;22.10;69.90;;;22.67;50.36;94492.13;6177906;23;20437;-58
2022/09/16 05:06:10;;;;;;;17.23;4.00;;;22.10;69.20;;;22.72;50.67;94491.47;6177197;23;20489;-55
2022/09/16 05:08:37;;;;;;;14.27;4.50;;;22.10;68.90;;;22.76;49.89;94494.50;6177118;23;20917;-55
2022/09/16 05:11:06;;;;;;;23.73;4.70;;;22.20;69.00;;;22.82;50.20;94499.81;6176843;23;20406;-56
2022/09/16 05:13:33;;;;;;;7.80;3.53;;;22.20;68.90;;;22.90;49.88;94499.50;6176447;23;20398;-55
2022/09/16 05:16:05;;;;;;;11.93;2.90;;;22.30;68.60;;;22.97;49.71;94496.72;6176416;23;20792;-57
2022/09/16 05:18:33;;;;;;;17.73;3.77;;;22.40;68.30;;;23.07;49.54;94501.56;6176829;23;20445;-55
2022/09/16 05:21:03;;;;;;;29.10;5.50;;;22.50;68.80;;;23.15;49.46;94501.28;6176503;23;20409;-56
2022/09/16 05:23:31;;;;;;;15.73;4.87;;;22.50;68.80;;;23.20;49.09;94492.53;6176899;23;20429;-57
2022/09/16 05:26:03;;;;;;;18.77;4.33;;;22.60;68.50;;;23.26;49.47;94497.81;6176456;23;20882;-58
2022/09/16 05:28:30;;;;;;;25.13;5.00;;;22.70;68.50;;;23.32;49.15;94493.41;6177346;23;20472;-57
2022/09/16 05:31:08;;;;;;;16.37;4.80;;;22.70;68.60;;;23.39;49.80;94491.44;6176701;23;20448;-56
2022/09/16 05:33:36;;;;;;;19.03;4.17;;;22.80;68.50;;;23.45;49.54;94484.31;6175899;23;20401;-54
2022/09/16 05:36:06;;;;;;;24.00;3.77;;;22.80;67.90;;;23.51;49.75;94475.34;6177065;23;20396;-57
2022/09/16 05:38:34;;;;;;;20.80;3.93;;;22.90;68.20;;;23.57;48.54;94473.63;6177511;23;20464;-58
2022/09/16 05:41:01;;;;;;;21.30;3.83;;;22.90;67.50;;;23.61;49.12;94470.25;6177327;23;20408;-55
2022/09/16 05:43:29;;;;;;;16.00;3.80;;;23.00;67.50;;;23.69;48.49;94470.97;6177459;23;20405;-53
2022/09/16 05:45:56;;;;;;;18.23;3.90;;;23.00;67.60;;;23.79;48.62;94463.94;6177486;23;20428;-55
2022/09/16 05:48:24;;;;;;;17.53;3.90;;;23.10;68.10;;;23.94;48.28;94468.91;6177106;23;20806;-58
2022/09/16 05:50:53;;;;;;;33.13;4.67;;;23.30;67.90;;;24.10;49.33;94466.56;6176914;23;20417;-58
2022/09/16 05:53:21;;;;;;;12.60;3.93;;;23.40;68.40;;;24.31;49.19;94473.22;6176778;23;20401;-56
2022/09/16 05:55:56;;;;;;;9.63;4.20;;;23.60;68.50;;;24.51;48.72;94483.59;6177087;23;20396;-56
2022/09/16 05:58:23;;;;;;;28.33;5.47;;;23.80;68.20;;;24.69;48.24;94486.19;6177141;23;21077;-55
2022/09/16 06:00:51;;;;;;;21.43;4.00;;;24.00;68.10;;;24.89;47.51;94479.56;6176371;23;20409;-54
2022/09/16 06:03:18;;;;;;;12.20;3.93;;;24.10;66.90;;;25.10;46.86;94478.09;6176449;23;20944;-55
2022/09/16 06:05:45;;;;;;;9.00;3.23;;;24.40;66.00;;;25.29;46.63;94478.72;6176702;23;20412;-56
2022/09/16 06:08:13;;;;;;;27.73;3.50;;;24.60;65.30;;;25.52;46.47;94482.38;6176797;23;20401;-55
2022/09/16 06:10:42;;;;;;;11.90;3.73;;;24.80;64.50;;;25.74;45.08;94477.88;6176720;23;20425;-57
2022/09/16 06:13:09;;;;;;;5.90;3.20;;;25.00;63.50;;;25.99;44.85;94476.69;6176908;23;20796;-56
2022/09/16 06:15:36;;;;;;;11.87;2.70;;;25.20;63.00;;;26.23;44.34;94479.22;6176715;23;20836;-55
2022/09/16 06:18:03;;;;;;;16.87;4.40;;;25.50;61.60;;;26.48;43.81;94479.56;6176633;23;20401;-55
2022/09/16 06:20:31;;;;;;;16.93;3.90;;;25.70;61.00;;;26.73;43.33;94478.31;6176492;23;20983;-57
2022/09/16 06:22:58;;;;;;;15.97;3.90;;;25.90;60.00;;;26.98;42.76;94483.19;6176462;23;20401;-57
2022/09/16 06:25:25;;;;;;;13.33;4.93;;;26.10;59.80;;;27.21;43.13;94472.38;6176383;23;20420;-55
2022/09/16 06:27:54;;;;;;;12.73;3.33;;;26.40;59.90;;;27.36;42.84;94464.47;6176482;23;20493;-54
2022/09/16 06:30:21;;;;;;;13.47;3.50;;;26.60;59.70;;;27.53;42.45;94459.75;6176030;23;20417;-56
2022/09/16 06:32:48;;;;;;;12.83;3.80;;;26.70;58.80;;;27.66;42.19;94460.41;6175908;23;20739;-57
2022/09/16 06:35:16;;;;;;;7.57;3.03;;;26.90;58.70;;;27.68;41.95;94466.38;6177251;23;20436;-56
2022/09/16 06:37:43;;;;;;;10.67;3.80;;;26.90;58.30;;;27.64;42.20;94459.88;6177802;23;20405;-57
2022/09/16 06:40:11;;;;;;;15.80;2.87;;;27.00;58.00;;;27.70;41.72;94461.50;6178078;23;20444;-58
2022/09/16 06:42:38;;;;;;;6.80;4.07;;;27.00;58.00;;;27.89;41.50;94470.88;6177512;23;20400;-58
2022/09/16 06:45:08;;;;;;;15.50;2.83;;;27.20;57.80;;;28.18;41.12;94475.16;6177413;23;20425;-58
2022/09/16 06:47:36;;;;;;;8.33;2.60;;;27.40;57.40;;;28.49;40.19;94480.75;6178292;23;20492;-59
2022/09/16 06:50:04;;;;;;;12.50;3.40;;;27.70;56.50;;;28.83;40.46;94485.84;6177388;23;20420;-54
2022/09/16 06:52:31;;;;;;;9.60;3.80;;;28.00;56.40;;;29.21;39.99;94489.28;6177017;23;20658;-57
2022/09/16 06:54:58;;;;;;;11.37;4.13;;;28.30;55.50;;;29.57;39.35;94476.59;6176445;23;20747;-56
2022/09/16 06:57:26;;;;;;;9.83;3.00;;;28.70;55.00;;;29.96;38.34;94472.59;6176632;23;20921;-56
2022/09/16 06:59:53;;;;;;;16.13;3.70;;;29.10;54.20;;;30.34;38.33;94473.91;6177691;23;20452;-55
2022/09/16 07:02:22;;;;;;;43.77;9.90;;;29.40;53.80;;;30.64;37.00;94474.16;6176731;23;20479;-59
2022/09/16 07:04:50;;;;;;;10.37;2.53;;;29.70;52.30;;;30.89;36.67;94482.22;6177881;23;20247;-58
2022/09/16 07:07:17;;;;;;;10.57;3.00;;;30.00;52.10;;;31.15;36.64;94486.75;6176586;23;20730;-58
2022/09/16 07:09:44;;;;;;;21.93;3.77;;;30.30;51.10;;;31.38;35.88;94486.09;6176043;23;20189;-58
2022/09/16 07:12:12;;;;;;;7.03;2.83;;;30.50;51.10;;;31.70;35.97;94482.13;6176790;23;20174;-53
2022/09/16 07:14:39;;;;;;;10.37;2.87;;;30.80;51.00;;;31.99;35.17;94484.91;6176272;23;20193;-57
2022/09/16 07:17:07;;;;;;;6.70;2.70;;;31.10;49.90;;;32.26;35.08;94480.09;6176255;23;20220;-55
2022/09/16 07:19:36;;;;;;;16.03;3.53;;;31.30;49.80;;;32.57;34.43;94482.50;6176130;23;20745;-56
2022/09/16 07:22:04;;;;;;;16.77;3.20;;;31.60;48.90;;;32.78;34.05;94467.59;6176783;23;20202;-55
2022/09/16 07:24:31;;;;;;;6.33;2.90;;;31.90;48.20;;;32.95;33.75;94471.75;6176682;23;20186;-57
2022/09/16 07:26:58;;;;;;;7.15;3.05;;;32.00;47.70;;;33.18;33.27;94476.38;6176272;23;20193;-57
2022/09/16 07:29:26;;;;;;;8.98;2.63;;;32.20;47.90;;;33.58;33.18;94467.94;6175805;23;20200;-57
2022/09/16 07:31:53;;;;;;;20.58;2.95;;;32.50;48.00;;;34.08;32.17;94481.09;6176221;23;20174;-58
2022/09/16 07:34:21;;;;;;;18.38;2.90;;;33.00;47.00;;;34.43;32.74;94481.66;6176397;23;20545;-56
2022/09/16 07:36:50;;;;;;;8.05;3.13;;;33.40;46.50;;;34.67;31.80;94476.00;6176304;23;20639;-55
2022/09/16 07:39:18;;;;;;;12.27;3.08;;;33.70;46.00;;;34.94;31.82;94461.59;6176195;23;20201;-57
2022/09/16 07:41:47;;;;;;;10.48;2.45;;;34.00;45.70;;;35.14;31.68;94459.56;6176409;23;20170;-59
2022/09/16 07:44:15;;;;;;;11.10;2.90;;;34.30;44.80;;;35.32;31.53;94450.44;6177567;23;20678;-56
2022/09/16 07:46:43;;;;;;;16.38;4.22;;;34.60;44.30;;;35.66;31.32;94451.84;6179057;23;20173;-54
2022/09/16 07:49:12;;;;;;;11.02;3.00;;;34.90;43.80;;;36.01;30.13;94456.81;6177719;23;20201;-58
2022/09/16 07:51:40;;;;;;;13.95;2.90;;;35.30;42.70;;;36.25;30.16;94451.00;6178857;23;20572;-55
2022/09/16 07:54:11;;;;;;;11.45;2.45;;;35.70;42.60;;;36.53;30.08;94456.34;6177691;23;20193;-58
2022/09/16 07:56:39;;;;;;;9.88;3.20;;;35.90;42.20;;;36.89;29.18;94463.59;6177853;23;20709;-60
2022/09/16 07:59:07;;;;;;;18.73;3.00;;;36.30;41.90;;;37.25;29.23;94459.88;6177483;23;20186;-58
2022/09/16 08:01:35;;;;;;;7.28;2.28;;;36.60;41.50;;;37.51;28.82;94451.69;6178364;23;20166;-56
2022/09/16 08:04:03;;;;;;;10.82;3.10;;;36.80;41.10;;;37.67;28.68;94444.56;6177287;23;20189;-59
2022/09/16 08:06:32;;;;;;;8.70;2.92;;;37.10;40.60;;;37.63;28.46;94440.06;6179415;23;20635;-55
2022/09/16 08:09:01;;;;;;;13.07;3.28;;;37.10;40.50;;;37.55;28.80;94435.38;6178777;23;20194;-57
2022/09/16 08:11:30;;;;;;;12.05;2.85;;;37.00;40.30;;;37.50;28.76;94439.88;6178892;23;20627;-58
2022/09/16 08:13:58;;;;;;;11.15;2.70;;;36.90;40.20;;;37.49;28.50;94437.47;6177630;23;20243;-55
2022/09/16 08:16:25;;;;;;;20.80;2.92;;;37.00;40.20;;;37.56;28.64;94435.06;6178431;23;20493;-58
2022/09/16 08:18:56;;;;;;;24.20;3.88;;;37.00;40.20;;;37.74;28.44;94432.34;6177066;23;20197;-58
2022/09/16 08:21:24;;;;;;;11.95;3.25;;;37.20;40.10;;;37.95;28.26;94427.81;6177204;23;20275;-56
2022/09/16 08:23:51;;;;;;;6.88;2.90;;;37.40;39.80;;;38.06;27.77;94431.03;6177216;23;20587;-56
2022/09/16 08:26:19;;;;;;;4.20;2.47;;;37.50;39.10;;;37.96;27.38;94429.44;6177697;23;20169;-58
2022/09/16 08:28:48;;;;;;;10.10;3.05;;;37.50;38.60;;;37.78;27.36;94423.13;6177998;23;20216;-55
2022/09/16 08:31:16;;;;;;;9.77;3.08;;;37.30;38.40;;;37.52;27.27;94425.06;6178451;23;20248;-55
2022/09/16 08:33:43;;;;;;;7.65;3.20;;;37.10;38.10;;;37.18;27.52;94421.09;6178041;23;20190;-56
2022/09/16 08:36:14;;;;;;;13.57;3.10;;;36.80;38.50;;;36.79;28.11;94412.63;6177572;23;20165;-55
2022/09/16 08:38:42;;;;;;;8.52;3.17;;;36.30;38.70;;;36.32;28.15;94409.53;6177557;23;20593;-59
2022/09/16 08:41:28;;;;;;;29.88;3.35;;;35.90;38.80;;;35.84;28.44;94409.03;6177601;23;20212;-54
2022/09/16 08:44:05;;;;;;;19.75;3.25;;;35.40;39.40;;;35.49;28.88;94405.19;6177404;23;20585;-55
2022/09/16 08:46:36;;;;;;;13.95;2.75;;;35.00;40.20;;;35.21;29.71;94410.72;6177182;23;20161;-55
2022/09/16 08:49:10;;;;;;;6.07;2.65;;;34.70;40.80;;;34.93;29.80;94402.56;6177847;23;20197;-58
2022/09/16 08:51:38;;;;;;;19.58;4.30;;;34.40;41.30;;;34.67;30.23;94407.69;6178405;23;20489;-57
2022/09/16 08:54:07;;;;;;;22.63;3.40;;;34.10;41.50;;;34.38;29.93;94408.00;6177132;23;20252;-57
2022/09/16 08:56:35;;;;;;;10.43;2.95;;;33.80;41.70;;;34.06;30.99;94402.25;6177434;23;20176;-58
2022/09/16 08:59:12;;;;;;;19.55;3.05;;;33.50;42.20;;;33.74;31.23;94411.25;6176925;23;20202;-56
2022/09/16 09:01:42;;;;;;;17.35;3.55;;;33.20;42.80;;;33.43;31.38;94406.25;6176636;23;20635;-54
2022/09/16 09:04:09;;;;;;;12.77;4.45;;;32.90;43.10;;;33.15;31.80;94400.63;6176715;23;20288;-56
2022/09/16 09:06:51;;;;;;;10.48;3.13;;;32.50;43.70;;;32.82;31.61;94397.78;6177137;23;20170;-56
2022/09/16 09:09:31;;;;;;;9.38;2.40;;;32.20;43.70;;;32.56;32.27;94404.63;6176821;23;20205;-54
2022/09/16 09:12:04;;;;;;;14.80;3.08;;;32.00;44.40;;;32.33;32.84;94407.03;6177245;23;20166;-53
2022/09/16 09:14:41;;;;;;;15.02;2.83;;;31.70;44.70;;;32.12;32.82;94401.81;6178418;23;20256;-55
2022/09/16 09:17:16;;;;;;;6.20;2.72;;;31.50;44.90;;;31.96;33.29;94398.41;6177311;23;20508;-54
2022/09/16 09:19:55;;;;;;;12.10;2.80;;;31.30;45.30;;;31.86;33.59;94401.22;6176899;23;20263;-57
2022/09/16 09:22:41;;;;;;;9.85;3.03;;;31.20;45.90;;;31.72;34.05;94408.41;6177516;23;20181;-55
2022/09/16 09:25:27;;;;;;;9.73;3.20;;;31.00;45.70;;;31.62;34.54;94406.56;6177509;23;20189;-53
2022/09/16 09:28:03;;;;;;;7.50;2.22;;;30.90;46.50;;;31.55;33.75;94408.81;6177112;23;20561;-57
2022/09/16 09:30:32;;;;;;;9.27;3.20;;;30.80;46.60;;;31.50;34.04;94400.69;6176500;23;20255;-56
2022/09/16 09:33:13;;;;;;;13.20;3.67;;;30.70;46.30;;;31.43;34.00;94401.81;6175402;23;20493;-56
2022/09/16 09:35:57;;;;;;;24.45;3.20;;;30.70;46.70;;;31.36;34.03;94405.94;6177055;23;20267;-55
2022/09/16 09:38:49;;;;;;;15.20;3.60;;;30.60;46.90;;;31.26;34.71;94412.25;6177023;23;20236;-54
2022/09/16 09:41:19;;;;;;;12.82;3.58;;;30.50;47.40;;;31.16;34.53;94421.28;6177648;23;20252;-58
2022/09/16 09:43:48;;;;;;;3.83;2.25;;;30.40;47.50;;;31.05;34.62;94417.81;6176927;23;20189;-55
2022/09/16 09:46:22;;;;;;;17.15;3.60;;;30.40;47.60;;;30.97;34.76;94418.41;6177119;23;20166;-56
2022/09/16 09:48:51;;;;;;;13.48;2.50;;;30.30;47.60;;;30.89;35.20;94430.63;6176590;23;20714;-54
2022/09/16 09:51:23;;;;;;;7.65;3.50;;;30.20;48.10;;;30.83;36.09;94431.75;6177643;23;20197;-55
2022/09/16 09:53:53;;;;;;;9.77;3.43;;;30.10;48.70;;;30.72;35.50;94430.97;6177238;23;20193;-59
2022/09/16 09:56:24;;;;;;;10.50;3.50;;;30.00;48.90;;;30.61;36.45;94440.22;6176633;23;20166;-55
2022/09/16 09:58:58;;;;;;;13.10;3.30;;;29.90;49.50;;;30.48;36.84;94443.53;6176789;23;20190;-55
2022/09/16 10:01:26;;;;;;;9.30;2.97;;;29.80;49.80;;;30.35;37.51;94447.59;6176293;23;20677;-57
2022/09/16 10:03:54;;;;;;;13.60;3.77;;;29.60;50.50;;;30.19;37.70;94465.78;6177714;23;20189;-55
2022/09/16 10:06:26;;;;;;;10.50;3.90;;;29.50;50.50;;;29.98;37.58;94471.25;6176561;23;20170;-57
2022/09/16 10:08:54;;;;;;;6.13;3.20;;;29.30;51.00;;;29.81;38.59;94486.97;6176902;23;20698;-57
2022/09/16 10:11:24;;;;;;;7.47;3.13;;;29.20;51.60;;;29.63;38.47;94497.22;6177141;23;20197;-55
2022/09/16 10:13:52;;;;;;;9.40;3.00;;;29.00;52.30;;;29.47;39.30;94504.50;6177342;23;20189;-58
2022/09/16 10:16:21;;;;;;;20.90;3.67;;;28.80;52.90;;;29.28;40.32;94525.03;6176463;23;20178;-55
2022/09/16 10:18:58;;;;;;;18.10;4.00;;;28.70;54.30;;;29.04;41.87;94562.56;6177017;23;20190;-56
2022/09/16 10:21:25;;;;;;;17.37;4.23;;;28.40;55.50;;;28.78;42.28;94581.38;6176880;23;20193;-58
2022/09/16 10:23:56;;;;;;;12.07;3.10;;;28.20;56.30;;;28.51;42.66;94611.22;6177554;23;20469;-58
2022/09/16 10:26:24;;;;;;;23.53;2.40;;;27.90;56.80;;;28.20;43.67;94608.25;6176460;23;20482;-55
2022/09/16 10:28:57;;;;;;;6.23;2.17;;;27.70;57.90;;;27.87;44.25;94616.28;6177590;23;20193;-56